Time;durP1;ratioP1;P1;durP2;ratioP2;P2;SDS_P1;SDS_P2;PMS_P1;PMS_P2;Temp;Humidity;BMP_temperature;BMP_pressure;BME280_temperature;BME280_humidity;BME280_pressure;Samples;Min_cycle;Max_cycle;Signal;HPM_P1;HPM_P2
2023/03/30 00:01:13;;;;;;;;;;;;;;;5.98;70.58;99969.72;5098127;28;19920;-66
2023/03/30 00:03:43;;;;;;;;;;;;;;;5.99;70.35;99968.91;5098067;28;19920;-66
2023/03/30 00:06:13;;;;;;;;;;;;;;;5.98;70.34;99967.19;5098250;28;19946;-66
2023/03/30 00:08:43;;;;;;;;;;;;;;;6.01;70.34;99959.66;5098341;28;19920;-66
2023/03/30 00:11:14;;;;;;;;;;;;;;;5.98;70.16;99957.03;5098262;28;19927;-66
2023/03/30 00:13:43;;;;;;;;;;;;;;;5.98;70.29;99951.97;5098426;28;19920;-66
2023/03/30 00:16:13;;;;;;;;;;;;;;;5.95;70.25;99947.69;5097872;28;19920;-66
2023/03/30 00:18:43;;;;;;;;;;;;;;;5.92;70.08;99946.78;5098057;28;19920;-65
2023/03/30 00:21:12;;;;;;;;;;;;;;;5.95;70.46;99946.88;5098179;28;20018;-65
2023/03/30 00:23:40;;;;;;;;;;;;;;;5.99;70.42;99948.63;5096573;28;19927;-66
2023/03/30 00:26:11;;;;;;;;;;;;;;;5.99;70.36;99946.09;5097643;28;19999;-66
2023/03/30 00:28:41;;;;;;;;;;;;;;;6.00;70.45;99945.25;5057358;28;19921;-66
2023/03/30 00:31:10;;;;;;;;;;;;;;;6.00;70.47;99942.72;5057293;28;19955;-65
2023/03/30 00:33:42;;;;;;;;;;;;;;;5.99;70.25;99948.63;5058480;28;20275;-66
2023/03/30 00:36:15;;;;;;;;;;;;;;;5.97;70.76;99940.16;5057240;28;19920;-66
2023/03/30 00:38:44;;;;;;;;;;;;;;;5.94;70.19;99935.88;5057488;28;19920;-66
2023/03/30 00:41:15;;;;;;;;;;;;;;;5.95;70.95;99936.75;5056427;28;19942;-66
2023/03/30 00:43:54;;;;;;;;;;;;;;;5.94;70.56;99935.00;5057265;28;19920;-66
2023/03/30 00:46:24;;;;;;;;;;;;;;;5.91;70.70;99930.75;5057070;28;19974;-66
2023/03/30 00:48:56;;;;;;;;;;;;;;;5.88;71.04;99927.25;5057286;28;19982;-66
2023/03/30 00:51:26;;;;;;;;;;;;;;;5.91;70.77;99924.81;5055766;28;19920;-66
2023/03/30 00:53:56;;;;;;;;;;;;;;;5.90;71.08;99918.06;5056937;28;20438;-66
2023/03/30 00:56:29;;;;;;;;;;;;;;;5.88;71.29;99915.47;5057146;28;20314;-66
2023/03/30 00:58:58;;;;;;;;;;;;;;;5.85;71.06;99917.09;5057480;28;20270;-66
2023/03/30 01:01:28;;;;;;;;;;;;;;;5.84;71.24;99918.75;5056685;28;19975;-66
2023/03/30 01:03:59;;;;;;;;;;;;;;;5.85;71.45;99914.56;5056609;28;20366;-66
2023/03/30 01:06:28;;;;;;;;;;;;;;;5.84;71.26;99917.88;5056710;28;19921;-66
2023/03/30 01:08:58;;;;;;;;;;;;;;;5.81;71.75;99910.19;5056627;28;19924;-66
2023/03/30 01:11:27;;;;;;;;;;;;;;;5.76;71.51;99899.16;5056334;28;20011;-65
2023/03/30 01:13:58;;;;;;;;;;;;;;;5.72;71.38;99899.88;5057172;28;20333;-65
2023/03/30 01:16:30;;;;;;;;;;;;;;;5.68;71.39;99890.50;5056522;28;19927;-65
2023/03/30 01:19:05;;;;;;;;;;;;;;;5.60;71.49;99897.06;5056518;28;19920;-66
2023/03/30 01:21:49;;;;;;;;;;;;;;;5.53;71.84;99900.28;5056703;28;19928;-66
2023/03/30 01:24:35;;;;;;;;;;;;;;;5.57;71.89;99902.06;5053008;28;20278;-66
2023/03/30 01:27:12;;;;;;;;;;;;;;;5.54;71.75;99902.00;5069927;28;20324;-66
2023/03/30 01:29:46;;;;;;;;;;;;;;;5.56;71.86;99895.31;5096522;28;19923;-66
2023/03/30 01:32:26;;;;;;;;;;;;;;;5.59;72.21;99901.28;5096648;28;19963;-66
2023/03/30 01:35:08;;;;;;;;;;;;;;;5.58;71.94;99908.84;5096780;28;19930;-66
2023/03/30 01:37:44;;;;;;;;;;;;;;;5.55;72.23;99893.56;5096698;28;19985;-66
2023/03/30 01:40:15;;;;;;;;;;;;;;;5.57;71.94;99881.81;5096695;28;20016;-66
2023/03/30 01:42:49;;;;;;;;;;;;;;;5.62;71.99;99891.22;5096175;28;19920;-65
2023/03/30 01:45:22;;;;;;;;;;;;;;;5.61;72.21;99891.19;5096466;28;19919;-66
2023/03/30 01:47:54;;;;;;;;;;;;;;;5.58;72.19;99883.53;5096503;28;19920;-66
2023/03/30 01:50:25;;;;;;;;;;;;;;;5.62;72.72;99882.75;5095516;28;20285;-66
2023/03/30 01:52:57;;;;;;;;;;;;;;;5.61;72.53;99876.00;5096310;28;20015;-66
2023/03/30 01:55:33;;;;;;;;;;;;;;;5.61;72.13;99876.00;5096021;28;19920;-66
2023/03/30 01:58:04;;;;;;;;;;;;;;;5.61;72.18;99881.06;5096520;28;19945;-66
2023/03/30 02:00:35;;;;;;;;;;;;;;;5.60;72.41;99871.75;5094735;28;19920;-66
2023/03/30 02:03:07;;;;;;;;;;;;;;;5.62;72.15;99870.97;5096109;28;19920;-66
2023/03/30 02:05:37;;;;;;;;;;;;;;;5.62;72.02;99890.34;5094563;28;19926;-66
2023/03/30 02:08:08;;;;;;;;;;;;;;;5.57;72.41;99881.81;5094524;28;19923;-66
2023/03/30 02:10:39;;;;;;;;;;;;;;;5.52;72.42;99885.94;5095701;28;19926;-66
2023/03/30 02:13:08;;;;;;;;;;;;;;;5.50;72.34;99890.94;5095940;28;19965;-66
2023/03/30 02:15:38;;;;;;;;;;;;;;;5.54;72.75;99886.81;5094395;28;19926;-66
2023/03/30 02:18:07;;;;;;;;;;;;;;;5.53;72.68;99880.03;5094628;28;19927;-66
2023/03/30 02:20:36;;;;;;;;;;;;;;;5.49;72.41;99883.34;5096028;28;19920;-66
2023/03/30 02:23:08;;;;;;;;;;;;;;;5.49;72.27;99894.31;5094732;28;19927;-65
2023/03/30 02:25:38;;;;;;;;;;;;;;;5.52;72.52;99898.59;5095677;28;19964;-66
2023/03/30 02:28:07;;;;;;;;;;;;;;;5.51;72.72;99890.13;5095402;28;19927;-66
2023/03/30 02:30:38;;;;;;;;;;;;;;;5.53;72.28;99885.09;5094100;28;19965;-66
2023/03/30 02:33:08;;;;;;;;;;;;;;;5.52;72.58;99885.94;5095556;28;19920;-66
2023/03/30 02:35:44;;;;;;;;;;;;;;;5.52;72.42;99885.94;5095806;28;19920;-66
2023/03/30 02:38:19;;;;;;;;;;;;;;;5.52;72.20;99881.72;5094060;28;20383;-66
2023/03/30 02:40:57;;;;;;;;;;;;;;;5.56;72.38;99887.72;5094348;28;19920;-66
2023/03/30 02:43:33;;;;;;;;;;;;;;;5.58;72.46;99888.59;5094115;28;19935;-66
2023/03/30 02:46:13;;;;;;;;;;;;;;;5.56;72.26;99891.09;5095334;28;20011;-66
2023/03/30 02:48:49;;;;;;;;;;;;;;;5.57;72.27;99886.88;5094132;28;19920;-65
2023/03/30 02:51:24;;;;;;;;;;;;;;;5.56;71.96;99880.13;5095274;28;20003;-66
2023/03/30 02:54:14;;;;;;;;;;;;;;;5.53;72.31;99877.50;5094834;28;19920;-66
2023/03/30 02:56:59;;;;;;;;;;;;;;;5.49;72.38;99879.13;5094839;28;19920;-66
2023/03/30 02:59:31;;;;;;;;;;;;;;;5.53;72.36;99874.97;5093668;28;19951;-66
2023/03/30 03:02:03;;;;;;;;;;;;;;;5.52;72.39;99878.34;5093596;28;19970;-66
2023/03/30 03:04:34;;;;;;;;;;;;;;;5.45;72.39;99876.50;5093692;28;22309;-66
2023/03/30 03:07:14;;;;;;;;;;;;;;;5.50;72.29;99879.97;5094887;28;20031;-66
2023/03/30 03:09:43;;;;;;;;;;;;;;;5.53;72.21;99874.97;5093417;28;19967;-66
2023/03/30 03:12:13;;;;;;;;;;;;;;;5.48;72.18;99871.47;5093599;28;19920;-66
2023/03/30 03:14:42;;;;;;;;;;;;;;;5.44;72.27;99870.56;5093296;28;19927;-66
2023/03/30 03:17:12;;;;;;;;;;;;;;;5.42;72.23;99857.88;5094819;28;19920;-66
2023/03/30 03:19:45;;;;;;;;;;;;;;;5.42;72.49;99869.69;5094450;28;20011;-66
2023/03/30 03:22:15;;;;;;;;;;;;;;;5.37;72.08;99877.16;5094319;28;20437;-66
2023/03/30 03:24:45;;;;;;;;;;;;;;;5.38;72.66;99873.81;5093066;28;20007;-66
2023/03/30 03:27:26;;;;;;;;;;;;;;;5.42;72.38;99873.06;5094225;28;19950;-66
2023/03/30 03:30:07;;;;;;;;;;;;;;;5.41;72.17;99881.47;5094577;28;20349;-66
2023/03/30 03:32:43;;;;;;;;;;;;;;;5.43;72.03;99869.72;5094212;28;19974;-65
2023/03/30 03:35:13;;;;;;;;;;;;;;;5.47;71.96;99864.72;5092133;28;20012;-66
2023/03/30 03:37:41;;;;;;;;;;;;;;;5.47;71.91;99865.56;5092999;28;20022;-65
2023/03/30 03:40:11;;;;;;;;;;;;;;;5.46;71.93;99865.53;5092950;28;19920;-65
2023/03/30 03:42:42;;;;;;;;;;;;;;;5.46;71.84;99865.53;5094419;28;20282;-66
2023/03/30 03:45:13;;;;;;;;;;;;;;;5.46;71.92;99865.53;5094016;28;19959;-66
2023/03/30 03:47:53;;;;;;;;;;;;;;;5.41;72.28;99871.34;5094460;28;19927;-66
2023/03/30 03:50:32;;;;;;;;;;;;;;;5.38;72.28;99863.69;5094060;28;19955;-66
2023/03/30 03:53:01;;;;;;;;;;;;;;;5.39;72.08;99862.88;5092753;28;19924;-66
2023/03/30 03:55:33;;;;;;;;;;;;;;;5.37;72.25;99856.06;5094091;28;19970;-66
2023/03/30 03:58:04;;;;;;;;;;;;;;;5.36;72.26;99852.69;5094008;28;19920;-65
2023/03/30 04:00:33;;;;;;;;;;;;;;;5.33;72.59;99867.78;5092789;28;20370;-66
2023/03/30 04:03:03;;;;;;;;;;;;;;;5.32;72.91;99855.97;5092702;28;19920;-66
2023/03/30 04:05:32;;;;;;;;;;;;;;;5.33;72.64;99856.81;5094151;28;19920;-66
2023/03/30 04:08:01;;;;;;;;;;;;;;;5.26;72.47;99860.88;5092880;28;20238;-65
2023/03/30 04:10:30;;;;;;;;;;;;;;;5.24;72.53;99854.94;5092671;28;19982;-64
2023/03/30 04:13:01;;;;;;;;;;;;;;;5.26;72.20;99855.81;5094123;28;19919;-66
2023/03/30 04:15:51;;;;;;;;;;;;;;;5.24;72.07;99847.34;5093467;28;20019;-65
2023/03/30 04:18:35;;;;;;;;;;;;;;;5.20;72.26;99850.63;5093775;28;19920;-65
2023/03/30 04:21:25;;;;;;;;;;;;;;;5.17;72.24;99854.75;5093766;28;19978;-66
2023/03/30 04:24:05;;;;;;;;;;;;;;;5.14;72.61;99855.53;5094019;28;20017;-66
2023/03/30 04:26:47;;;;;;;;;;;;;;;5.08;72.50;99854.53;5093653;28;19920;-66
2023/03/30 04:29:29;;;;;;;;;;;;;;;5.00;73.04;99856.88;5093586;28;20011;-66
2023/03/30 04:32:11;;;;;;;;;;;;;;;4.97;72.92;99856.81;5093655;28;20453;-66
2023/03/30 04:35:00;;;;;;;;;;;;;;;4.94;73.02;99846.63;5089428;28;20435;-65
2023/03/30 04:37:56;;;;;;;;;;;;;;;4.94;72.82;99851.69;5085341;28;19920;-64
2023/03/30 04:40:36;;;;;;;;;;;;;;;4.95;73.34;99840.75;5093617;28;19978;-65
2023/03/30 04:43:28;;;;;;;;;;;;;;;4.95;73.49;99833.16;5087663;28;19927;-66
2023/03/30 04:46:07;;;;;;;;;;;;;;;4.98;73.70;99835.75;5096150;28;19927;-65
2023/03/30 04:48:48;;;;;;;;;;;;;;;5.03;73.66;99831.66;5097262;28;19969;-65
2023/03/30 04:51:41;;;;;;;;;;;;;;;5.09;73.49;99830.94;5097332;28;20481;-66
2023/03/30 04:54:21;;;;;;;;;;;;;;;5.13;73.75;99822.63;5097150;28;19919;-64
2023/03/30 04:57:00;;;;;;;;;;;;;;;5.16;73.61;99820.19;5097088;28;19920;-66
2023/03/30 04:59:41;;;;;;;;;;;;;;;5.14;73.71;99809.13;5097096;28;19920;-66
2023/03/30 05:02:13;;;;;;;;;;;;;;;5.19;73.71;99812.63;5097349;28;20365;-66
2023/03/30 05:04:54;;;;;;;;;;;;;;;5.26;73.35;99815.34;5097275;28;19951;-66
2023/03/30 05:07:34;;;;;;;;;;;;;;;5.33;72.85;99816.31;5097106;28;19926;-66
2023/03/30 05:10:13;;;;;;;;;;;;;;;5.35;73.11;99810.47;5096914;28;19969;-66
2023/03/30 05:12:54;;;;;;;;;;;;;;;5.40;72.66;99816.50;5097516;28;19966;-66
2023/03/30 05:15:32;;;;;;;;;;;;;;;5.46;72.75;99822.50;5095562;28;20293;-66
2023/03/30 05:18:12;;;;;;;;;;;;;;;5.46;72.58;99822.50;5097017;28;19942;-64
2023/03/30 05:21:03;;;;;;;;;;;;;;;5.53;72.52;99824.34;5096686;28;19927;-65
2023/03/30 05:23:35;;;;;;;;;;;;;;;5.54;72.38;99811.75;5096986;28;20019;-65
2023/03/30 05:26:15;;;;;;;;;;;;;;;5.57;72.64;99810.94;5096582;28;19924;-66
2023/03/30 05:28:54;;;;;;;;;;;;;;;5.66;72.44;99811.16;5096794;28;19989;-65
2023/03/30 05:31:43;;;;;;;;;;;;;;;5.69;72.33;99808.66;5085322;28;20014;-65
2023/03/30 05:34:27;;;;;;;;;;;;;;;5.71;72.49;99809.56;5097042;28;20258;-66
2023/03/30 05:37:23;;;;;;;;;;;;;;;5.76;72.59;99815.59;5087759;28;19999;-66
2023/03/30 05:40:06;;;;;;;;;;;;;;;5.78;72.74;99811.41;5096585;28;20346;-66
2023/03/30 05:42:43;;;;;;;;;;;;;;;5.84;73.05;99811.50;5096260;28;19920;-66
2023/03/30 05:45:32;;;;;;;;;;;;;;;5.86;73.22;99814.94;5096086;28;20014;-66
2023/03/30 05:48:11;;;;;;;;;;;;;;;5.88;73.32;99808.22;5096327;28;20011;-66
2023/03/30 05:50:47;;;;;;;;;;;;;;;5.93;73.52;99801.59;5095972;28;19973;-66
2023/03/30 05:53:28;;;;;;;;;;;;;;;5.95;73.20;99807.56;5096072;28;20023;-66
2023/03/30 05:56:11;;;;;;;;;;;;;;;6.01;73.32;99790.78;5095899;28;19927;-66
2023/03/30 05:59:00;;;;;;;;;;;;;;;6.05;73.50;99791.69;5088400;28;20006;-66
2023/03/30 06:01:41;;;;;;;;;;;;;;;6.12;73.67;99793.50;5095676;28;19919;-66
2023/03/30 06:04:09;;;;;;;;;;;;;;;6.14;73.10;99796.94;5094629;28;20374;-66
2023/03/30 06:06:38;;;;;;;;;;;;;;;6.11;73.17;99789.28;5094449;28;19955;-65
2023/03/30 06:09:09;;;;;;;;;;;;;;;6.19;72.62;99789.44;5094490;28;19973;-65
2023/03/30 06:11:38;;;;;;;;;;;;;;;6.24;72.73;99787.84;5094375;28;19927;-65
2023/03/30 06:14:17;;;;;;;;;;;;;;;6.28;72.32;99798.06;5095866;28;20374;-65
2023/03/30 06:17:05;;;;;;;;;;;;;;;6.36;72.55;99790.59;5094581;28;20366;-65
2023/03/30 06:19:34;;;;;;;;;;;;;;;6.41;72.03;99778.81;5094497;28;19920;-65
2023/03/30 06:22:02;;;;;;;;;;;;;;;6.40;71.75;99788.13;5094268;28;19920;-65
2023/03/30 06:24:48;;;;;;;;;;;;;;;6.43;71.23;99784.81;5095611;28;20004;-65
2023/03/30 06:27:17;;;;;;;;;;;;;;;6.48;70.93;99784.03;5093998;28;20032;-65
2023/03/30 06:29:46;;;;;;;;;;;;;;;6.50;71.21;99782.38;5095322;28;19966;-65
2023/03/30 06:32:15;;;;;;;;;;;;;;;6.55;70.55;99780.78;5094068;28;19956;-65
2023/03/30 06:34:47;;;;;;;;;;;;;;;6.59;70.62;99774.94;5095412;28;19920;-65
2023/03/30 06:37:16;;;;;;;;;;;;;;;6.59;70.33;99769.00;5095058;28;19919;-65
2023/03/30 06:39:45;;;;;;;;;;;;;;;6.57;70.34;99770.69;5095409;28;19974;-65
2023/03/30 06:42:15;;;;;;;;;;;;;;;6.54;69.43;99766.41;5095011;28;19927;-65
2023/03/30 06:45:07;;;;;;;;;;;;;;;6.59;69.61;99767.34;5075217;28;20329;-65
2023/03/30 06:47:37;;;;;;;;;;;;;;;6.67;69.27;99763.22;5094927;28;19927;-65
2023/03/30 06:50:06;;;;;;;;;;;;;;;6.75;69.33;99764.22;5113257;28;20413;-65
2023/03/30 06:52:55;;;;;;;;;;;;;;;6.78;69.18;99763.41;5104141;28;19924;-65
2023/03/30 06:55:27;;;;;;;;;;;;;;;6.74;68.96;99772.63;5104981;28;19997;-65
2023/03/30 06:57:57;;;;;;;;;;;;;;;6.78;68.75;99775.22;5093531;28;20365;-65
2023/03/30 07:00:26;;;;;;;;;;;;;;;6.81;68.30;99785.44;5094972;28;20259;-65
2023/03/30 07:03:18;;;;;;;;;;;;;;;6.88;67.99;99774.53;5089128;28;19977;-65
2023/03/30 07:06:13;;;;;;;;;;;;;;;6.93;67.80;99778.00;5087053;28;20016;-65
2023/03/30 07:08:41;;;;;;;;;;;;;;;6.96;68.12;99778.88;5117638;27;19920;-65
2023/03/30 07:11:13;;;;;;;;;;;;;;;7.03;68.12;99779.84;5094771;28;19920;-65
2023/03/30 07:13:43;;;;;;;;;;;;;;;7.11;68.22;99793.50;5094497;28;19942;-65
2023/03/30 07:16:12;;;;;;;;;;;;;;;7.16;67.55;99774.97;5093602;28;20366;-65
2023/03/30 07:18:41;;;;;;;;;;;;;;;7.26;68.24;99783.56;5093597;28;20385;-65
2023/03/30 07:21:10;;;;;;;;;;;;;;;7.32;67.41;99778.56;5093423;28;19920;-65
2023/03/30 07:23:42;;;;;;;;;;;;;;;7.43;67.37;99774.50;5102065;28;20015;-66
2023/03/30 07:26:22;;;;;;;;;;;;;;;7.58;67.82;99767.09;5099262;28;19920;-65
2023/03/30 07:29:00;;;;;;;;;;;;;;;7.72;67.27;99770.66;5096652;28;19931;-65
2023/03/30 07:31:29;;;;;;;;;;;;;;;7.77;66.18;99766.47;5101319;28;20014;-65
2023/03/30 07:34:03;;;;;;;;;;;;;;;7.85;66.12;99777.56;5109840;28;19919;-64
2023/03/30 07:36:37;;;;;;;;;;;;;;;7.77;65.02;99768.16;5113332;28;20274;-63
2023/03/30 07:39:07;;;;;;;;;;;;;;;7.70;64.32;99771.47;5113302;28;19931;-64
2023/03/30 07:41:38;;;;;;;;;;;;;;;7.69;64.31;99762.97;5113317;28;19920;-65
2023/03/30 07:44:08;;;;;;;;;;;;;;;7.63;63.92;99755.28;5114265;28;19924;-64
2023/03/30 07:46:36;;;;;;;;;;;;;;;7.65;63.79;99763.78;5114377;28;19924;-64
2023/03/30 07:49:05;;;;;;;;;;;;;;;7.65;64.12;99762.94;5109240;28;20305;-64
2023/03/30 07:51:37;;;;;;;;;;;;;;;7.71;64.88;99763.84;5109271;28;19920;-65
2023/03/30 07:54:21;;;;;;;;;;;;;;;7.83;64.60;99758.06;5092844;28;19920;-64
2023/03/30 07:57:00;;;;;;;;;;;;;;;7.79;64.94;99757.19;5093957;28;19924;-65
2023/03/30 07:59:31;;;;;;;;;;;;;;;7.75;64.82;99755.41;5109884;28;19969;-64
2023/03/30 08:02:12;;;;;;;;;;;;;;;7.81;65.89;99760.59;5093924;28;20002;-65
2023/03/30 08:04:52;;;;;;;;;;;;;;;7.88;65.15;99762.38;5109928;28;19920;-65
2023/03/30 08:07:41;;;;;;;;;;;;;;;7.96;65.66;99770.94;5093518;28;19927;-65
2023/03/30 08:10:19;;;;;;;;;;;;;;;7.99;66.00;99781.09;5093738;28;19969;-65
2023/03/30 08:12:48;;;;;;;;;;;;;;;8.04;66.21;99769.31;5093976;28;19924;-64
2023/03/30 08:15:18;;;;;;;;;;;;;;;8.05;65.69;99760.84;5092510;28;19924;-65
2023/03/30 08:17:47;;;;;;;;;;;;;;;8.09;67.05;99766.81;5110695;28;19927;-66
2023/03/30 08:20:15;;;;;;;;;;;;;;;8.09;67.10;99764.28;5115183;28;19926;-66
2023/03/30 08:22:44;;;;;;;;;;;;;;;8.11;67.15;99749.88;5117161;28;20277;-64
2023/03/30 08:25:12;;;;;;;;;;;;;;;8.15;66.63;99751.63;5104991;28;19920;-64
2023/03/30 08:27:41;;;;;;;;;;;;;;;8.26;66.26;99756.81;5117137;28;19923;-64
2023/03/30 08:30:11;;;;;;;;;;;;;;;8.44;66.86;99765.53;5118007;28;19926;-64
2023/03/30 08:32:41;;;;;;;;;;;;;;;8.58;66.38;99763.09;5108950;28;19954;-65
2023/03/30 08:35:10;;;;;;;;;;;;;;;8.72;66.45;99766.59;5104819;28;19927;-65
2023/03/30 08:37:39;;;;;;;;;;;;;;;8.80;65.46;99764.13;5104304;28;20010;-65
2023/03/30 08:40:09;;;;;;;;;;;;;;;8.87;64.79;99771.81;5116747;28;20385;-65
2023/03/30 08:42:46;;;;;;;;;;;;;;;8.99;64.60;99777.00;5108538;28;19959;-65
2023/03/30 08:45:15;;;;;;;;;;;;;;;9.11;64.10;99787.25;5097703;28;19987;-64
2023/03/30 08:47:48;;;;;;;;;;;;;;;9.19;63.40;99790.69;5097233;28;19924;-64
2023/03/30 08:50:18;;;;;;;;;;;;;;;9.34;62.67;99785.69;5107617;28;19926;-65
2023/03/30 08:52:47;;;;;;;;;;;;;;;9.44;62.46;99766.22;5110789;28;19920;-64
2023/03/30 08:55:18;;;;;;;;;;;;;;;9.48;62.20;99751.81;5097066;28;19994;-64
2023/03/30 08:57:50;;;;;;;;;;;;;;;9.57;61.88;99751.84;5097175;28;20281;-64
2023/03/30 09:00:26;;;;;;;;;;;;;;;9.66;60.37;99741.69;5097331;28;19920;-65
2023/03/30 09:03:02;;;;;;;;;;;;;;;9.77;60.09;99745.13;5097382;28;20030;-64
2023/03/30 09:05:33;;;;;;;;;;;;;;;10.00;59.31;99730.75;5097018;28;19927;-66
2023/03/30 09:08:05;;;;;;;;;;;;;;;10.17;58.63;99721.47;5097033;28;19919;-65
2023/03/30 09:10:37;;;;;;;;;;;;;;;10.25;57.66;99707.00;5097245;28;20330;-64
2023/03/30 09:13:06;;;;;;;;;;;;;;;10.46;57.40;99709.56;5097048;28;20019;-68
2023/03/30 09:15:36;;;;;;;;;;;;;;;10.74;56.67;99710.44;5096699;28;20374;-66
2023/03/30 09:18:12;;;;;;;;;;;;;;;10.77;56.58;99713.81;5114430;28;20377;-65
2023/03/30 09:20:40;;;;;;;;;;;;;;;10.70;55.62;99718.94;5116735;28;20010;-66
2023/03/30 09:23:13;;;;;;;;;;;;;;;10.53;54.95;99715.56;5117064;28;19924;-65
2023/03/30 09:25:44;;;;;;;;;;;;;;;10.43;54.83;99713.84;5116776;28;19965;-66
2023/03/30 09:28:17;;;;;;;;;;;;;;;10.35;55.09;99708.72;5117867;27;19950;-65
2023/03/30 09:30:47;;;;;;;;;;;;;;;10.37;54.87;99701.91;5116802;28;19919;-65
2023/03/30 09:33:25;;;;;;;;;;;;;;;10.55;54.82;99696.84;5116779;28;19966;-65
2023/03/30 09:36:00;;;;;;;;;;;;;;;10.78;54.54;99692.56;5115269;28;19930;-65
2023/03/30 09:38:31;;;;;;;;;;;;;;;10.94;54.71;99693.34;5109687;28;20011;-66
2023/03/30 09:41:06;;;;;;;;;;;;;;;10.99;54.40;99690.81;5105416;28;19970;-67
2023/03/30 09:43:36;;;;;;;;;;;;;;;10.98;54.06;99691.66;5106652;28;19956;-65
2023/03/30 09:46:06;;;;;;;;;;;;;;;11.05;53.74;99691.66;5116598;28;19968;-67
2023/03/30 09:48:41;;;;;;;;;;;;;;;11.13;54.19;99684.78;5099159;28;19920;-65
2023/03/30 09:51:17;;;;;;;;;;;;;;;11.21;54.11;99684.78;5096039;28;19965;-66
2023/03/30 09:53:47;;;;;;;;;;;;;;;11.20;53.53;99691.63;5096268;28;20521;-66
2023/03/30 09:56:18;;;;;;;;;;;;;;;11.19;53.83;99683.94;5095873;28;19926;-66
2023/03/30 09:58:46;;;;;;;;;;;;;;;11.09;53.20;99683.13;5098123;28;19927;-68
2023/03/30 10:01:17;;;;;;;;;;;;;;;11.18;53.79;99682.25;5104502;28;19920;-67
2023/03/30 10:04:03;;;;;;;;;;;;;;;11.23;54.01;99671.16;5095731;28;19920;-65
2023/03/30 10:06:37;;;;;;;;;;;;;;;11.30;53.35;99661.78;5112229;28;19919;-65
2023/03/30 10:09:08;;;;;;;;;;;;;;;11.34;53.35;99648.13;5116084;28;19919;-66
2023/03/30 10:11:40;;;;;;;;;;;;;;;11.47;52.49;99624.19;5096153;28;19986;-67
2023/03/30 10:14:20;;;;;;;;;;;;;;;11.53;52.25;99619.06;5095853;28;20266;-66
2023/03/30 10:16:48;;;;;;;;;;;;;;;11.67;51.85;99624.09;5095668;28;19966;-67
2023/03/30 10:19:18;;;;;;;;;;;;;;;11.74;51.44;99626.63;5095464;28;19923;-66
2023/03/30 10:21:53;;;;;;;;;;;;;;;11.84;51.59;99628.28;5095517;28;19959;-65
2023/03/30 10:24:23;;;;;;;;;;;;;;;11.82;51.31;99624.88;5114215;28;19927;-65
2023/03/30 10:26:52;;;;;;;;;;;;;;;11.77;51.24;99629.16;5103999;28;20425;-66
2023/03/30 10:29:22;;;;;;;;;;;;;;;11.87;51.34;99619.72;5095750;28;20262;-66
2023/03/30 10:31:56;;;;;;;;;;;;;;;11.93;51.23;99625.66;5115655;28;19927;-66
2023/03/30 10:34:31;;;;;;;;;;;;;;;11.84;50.85;99618.03;5115688;28;19920;-65
2023/03/30 10:37:04;;;;;;;;;;;;;;;11.72;50.67;99614.72;5115560;28;19920;-66
2023/03/30 10:39:34;;;;;;;;;;;;;;;11.70;51.18;99612.19;5114078;28;19920;-65
2023/03/30 10:42:03;;;;;;;;;;;;;;;11.69;51.06;99610.47;5115424;28;20026;-65
2023/03/30 10:44:33;;;;;;;;;;;;;;;11.71;50.83;99597.69;5100355;28;19956;-67
2023/03/30 10:47:07;;;;;;;;;;;;;;;11.61;50.87;99588.34;5096079;28;20015;-65
2023/03/30 10:49:44;;;;;;;;;;;;;;;11.59;51.22;99580.66;5113400;28;20003;-65
2023/03/30 10:52:16;;;;;;;;;;;;;;;11.61;50.97;99586.66;5115270;28;19926;-65
2023/03/30 10:54:50;;;;;;;;;;;;;;;11.75;51.17;99574.66;5096628;28;19927;-65
2023/03/30 10:57:19;;;;;;;;;;;;;;;11.81;50.58;99579.69;5094791;28;19920;-66
2023/03/30 10:59:54;;;;;;;;;;;;;;;11.89;50.45;99567.72;5095055;28;19920;-66
2023/03/30 11:02:37;;;;;;;;;;;;;;;11.95;50.37;99572.75;5102213;28;19926;-66
2023/03/30 11:05:11;;;;;;;;;;;;;;;11.96;50.38;99564.25;5114917;28;19923;-66
2023/03/30 11:07:44;;;;;;;;;;;;;;;12.05;50.25;99574.38;5113570;28;20297;-68
2023/03/30 11:10:16;;;;;;;;;;;;;;;12.10;50.06;99572.66;5106833;28;19927;-66
2023/03/30 11:12:47;;;;;;;;;;;;;;;12.13;49.75;99581.16;5094739;28;19920;-65
2023/03/30 11:15:18;;;;;;;;;;;;;;;12.15;50.00;99584.53;5103863;28;19920;-65
2023/03/30 11:17:54;;;;;;;;;;;;;;;12.22;50.02;99578.50;5115008;28;19950;-66
2023/03/30 11:20:26;;;;;;;;;;;;;;;12.31;50.28;99570.78;5114799;28;19920;-66
2023/03/30 11:22:59;;;;;;;;;;;;;;;12.45;50.65;99563.78;5106592;28;20014;-67
2023/03/30 11:25:30;;;;;;;;;;;;;;;12.53;50.11;99550.03;5094264;28;19920;-66
2023/03/30 11:28:00;;;;;;;;;;;;;;;12.64;50.05;99547.38;5093199;28;19969;-66
2023/03/30 11:30:30;;;;;;;;;;;;;;;12.78;49.78;99548.91;5105961;28;19926;-65
2023/03/30 11:33:02;;;;;;;;;;;;;;;13.02;49.50;99546.91;5103042;28;19920;-66
2023/03/30 11:35:34;;;;;;;;;;;;;;;13.33;48.97;99554.22;5094540;28;19969;-66
2023/03/30 11:38:09;;;;;;;;;;;;;;;13.42;48.47;99559.19;5094181;28;19990;-67
2023/03/30 11:40:41;;;;;;;;;;;;;;;13.60;48.71;99559.81;5094469;28;19923;-66
2023/03/30 11:43:10;;;;;;;;;;;;;;;13.36;48.77;99549.03;5107766;28;20447;-65
2023/03/30 11:45:43;;;;;;;;;;;;;;;13.31;49.51;99550.81;5114279;28;20010;-67
2023/03/30 11:48:25;;;;;;;;;;;;;;;13.27;49.73;99538.91;5113677;28;19926;-66
2023/03/30 11:51:02;;;;;;;;;;;;;;;13.23;50.74;99534.69;5114323;28;19926;-65
2023/03/30 11:53:34;;;;;;;;;;;;;;;13.16;50.62;99530.53;5114919;28;19924;-66
2023/03/30 11:56:06;;;;;;;;;;;;;;;13.14;50.68;99521.16;5104664;28;19919;-65
2023/03/30 11:58:36;;;;;;;;;;;;;;;13.04;50.52;99524.66;5095660;28;19920;-66
2023/03/30 12:01:20;;;;;;;;;;;;;;;12.92;50.66;99514.59;5095945;28;19963;-65
2023/03/30 12:03:51;;;;;;;;;;;;;;;12.83;51.67;99520.69;5093204;28;20034;-67
2023/03/30 12:06:31;;;;;;;;;;;;;;;12.68;52.00;99515.75;5093969;28;19919;-65
2023/03/30 12:09:10;;;;;;;;;;;;;;;12.62;52.16;99516.66;5093989;28;20006;-65
2023/03/30 12:11:42;;;;;;;;;;;;;;;12.51;52.03;99507.41;5093823;28;20380;-65
2023/03/30 12:14:23;;;;;;;;;;;;;;;12.38;52.34;99522.03;5103699;28;20368;-66
2023/03/30 12:16:54;;;;;;;;;;;;;;;12.24;52.58;99523.06;5093721;28;19920;-64
2023/03/30 12:19:26;;;;;;;;;;;;;;;12.20;52.71;99516.28;5099032;28;19920;-64
2023/03/30 12:21:59;;;;;;;;;;;;;;;12.14;52.34;99511.22;5114180;28;19920;-65
2023/03/30 12:24:29;;;;;;;;;;;;;;;12.10;52.10;99498.47;5114087;28;19920;-64
2023/03/30 12:27:00;;;;;;;;;;;;;;;12.14;52.56;99495.88;5109693;28;19947;-64
2023/03/30 12:29:46;;;;;;;;;;;;;;;12.14;52.88;99493.31;5093460;28;20003;-65
2023/03/30 12:32:22;;;;;;;;;;;;;;;12.09;53.20;99494.19;5094110;28;19920;-64
2023/03/30 12:34:54;;;;;;;;;;;;;;;12.07;53.00;99485.69;5093771;28;19989;-64
2023/03/30 12:37:27;;;;;;;;;;;;;;;12.10;53.01;99480.56;5093525;28;19960;-65
2023/03/30 12:39:57;;;;;;;;;;;;;;;12.10;53.26;99474.59;5093523;28;19920;-65
2023/03/30 12:42:34;;;;;;;;;;;;;;;12.06;53.69;99478.91;5095096;28;19920;-64
2023/03/30 12:45:13;;;;;;;;;;;;;;;12.06;53.63;99467.81;5110579;28;19919;-65
2023/03/30 12:47:56;;;;;;;;;;;;;;;12.13;53.81;99458.34;5113781;28;19919;-65
2023/03/30 12:50:30;;;;;;;;;;;;;;;12.18;53.89;99452.34;5111831;28;19920;-65
2023/03/30 12:53:17;;;;;;;;;;;;;;;12.17;54.25;99435.28;5106413;28;19979;-64
2023/03/30 12:55:47;;;;;;;;;;;;;;;12.25;54.48;99432.63;5104986;28;19920;-65
2023/03/30 12:58:36;;;;;;;;;;;;;;;12.30;54.23;99423.19;5113855;28;20004;-65
2023/03/30 13:01:12;;;;;;;;;;;;;;;12.33;54.36;99420.59;5108135;28;19919;-64
2023/03/30 13:03:48;;;;;;;;;;;;;;;12.37;54.90;99424.81;5113061;28;19920;-66
2023/03/30 13:06:25;;;;;;;;;;;;;;;12.39;55.34;99415.41;5098131;28;19919;-64
2023/03/30 13:08:55;;;;;;;;;;;;;;;12.37;55.35;99401.78;5117249;28;20010;-65
2023/03/30 13:11:23;;;;;;;;;;;;;;;12.41;55.46;99398.31;5112567;28;19920;-65
2023/03/30 13:13:53;;;;;;;;;;;;;;;12.45;55.20;99399.97;5100138;28;19942;-65
2023/03/30 13:16:33;;;;;;;;;;;;;;;12.55;54.77;99393.84;5098111;28;19924;-64
2023/03/30 13:19:10;;;;;;;;;;;;;;;12.68;53.81;99408.19;5096987;28;19969;-65
2023/03/30 13:21:46;;;;;;;;;;;;;;;12.85;53.17;99405.41;5097064;28;20039;-65
2023/03/30 13:24:24;;;;;;;;;;;;;;;12.95;52.55;99406.97;5097362;28;19969;-65
2023/03/30 13:26:53;;;;;;;;;;;;;;;12.95;52.08;99402.69;5096533;28;19920;-65
2023/03/30 13:29:25;;;;;;;;;;;;;;;12.93;51.97;99414.69;5096526;28;19920;-65